Pagrindinis puslapis
METAR-TAF:

METAR-TAF

Oro uostai :

Lábrea, Amazonė, Brazilija

platuma: 07-15-01S, ilguma: 064-47-02W, Aukštis: 58 m

Dabartinis oras

Ataskaita buvo paskelbta 41 minutes, ne 11:00 UTC
Vėjas 7 kt iš Rytų/Pietryčių
Temperatūra 24°C
Drėgmė 74%
Slėgis 1022 hPa
Matomumas 10 km arba daugiau

METAR: SBLB 041100Z AUTO 12007KT 9999 NCD 24/19 Q1022 W25/S4

Laikas: 07:41 (11:41 UTC)


TAF: trūkstamas

Orai ataskaitas ir orų prognozės (METAR, TAF).

turimą stotys yra geltonos ir raudonos taškus žemėlapyje.

Perkelti pele per norėdami pamatyti stoties vardą.

Tada spustelėkite, norėdami matyti oro stebėjimo ir prognozės.

Norėdami pakeisti žemėlapį: spustelėkite ant žalios mygtukų su juodo kryžiaus žemyn,; žalią mygtuką su brūkšneliu, jei norite nutolinti; arba žalių rodyklių gretimoms žemėlapius.


METAR-TAF: